sensor_id;sensor_type;location;lat;lon;timestamp;pressure;altitude;pressure_sealevel;temperature;humidity
35778;BME280;21899;42.662;23.316;2022-09-12T00:00:27;94238.19;;;15.08;100.00
35778;BME280;21899;42.662;23.316;2022-09-12T00:02:55;94240.03;;;15.11;100.00
35778;BME280;21899;42.662;23.316;2022-09-12T00:05:21;94239.44;;;15.03;100.00
35778;BME280;21899;42.662;23.316;2022-09-12T00:07:47;94235.63;;;15.01;100.00
35778;BME280;21899;42.662;23.316;2022-09-12T00:10:13;94238.72;;;14.99;100.00
35778;BME280;21899;42.662;23.316;2022-09-12T00:12:38;94246.41;;;15.01;100.00
35778;BME280;21899;42.662;23.316;2022-09-12T00:15:04;94252.63;;;14.98;100.00
35778;BME280;21899;42.662;23.316;2022-09-12T00:17:33;94249.66;;;14.92;100.00
35778;BME280;21899;42.662;23.316;2022-09-12T00:19:59;94254.28;;;14.92;100.00
35778;BME280;21899;42.662;23.316;2022-09-12T00:22:24;94251.25;;;14.90;100.00
35778;BME280;21899;42.662;23.316;2022-09-12T00:24:49;94254.22;;;14.95;100.00
35778;BME280;21899;42.662;23.316;2022-09-12T00:27:15;94258.06;;;14.94;100.00
35778;BME280;21899;42.662;23.316;2022-09-12T00:29:41;94248.13;;;14.91;100.00
35778;BME280;21899;42.662;23.316;2022-09-12T00:32:06;94260.28;;;14.99;100.00
35778;BME280;21899;42.662;23.316;2022-09-12T00:34:32;94257.28;;;14.97;100.00
35778;BME280;21899;42.662;23.316;2022-09-12T07:47:26;94294.09;;;17.89;71.38
35778;BME280;21899;42.662;23.316;2022-09-12T07:49:51;94290.41;;;17.83;71.82
35778;BME280;21899;42.662;23.316;2022-09-12T07:52:17;94290.84;;;17.94;72.66
35778;BME280;21899;42.662;23.316;2022-09-12T07:54:42;94300.38;;;18.11;71.19
35778;BME280;21899;42.662;23.316;2022-09-12T07:57:08;94302.13;;;18.05;67.12
35778;BME280;21899;42.662;23.316;2022-09-12T07:59:34;94293.13;;;18.08;66.88
35778;BME280;21899;42.662;23.316;2022-09-12T08:01:59;94287.16;;;18.13;66.98
35778;BME280;21899;42.662;23.316;2022-09-12T08:04:25;94295.94;;;18.30;67.10
35778;BME280;21899;42.662;23.316;2022-09-12T08:06:50;94309.38;;;18.46;65.58
35778;BME280;21899;42.662;23.316;2022-09-12T08:09:16;94309.69;;;18.48;66.59
35778;BME280;21899;42.662;23.316;2022-09-12T08:11:42;94294.75;;;18.44;65.89
35778;BME280;21899;42.662;23.316;2022-09-12T08:14:08;94303.28;;;18.55;66.74
35778;BME280;21899;42.662;23.316;2022-09-12T08:16:33;94305.88;;;18.58;64.59
35778;BME280;21899;42.662;23.316;2022-09-12T08:19:00;94301.63;;;18.70;64.68
35778;BME280;21899;42.662;23.316;2022-09-12T08:21:31;94294.66;;;18.47;65.30
35778;BME280;21899;42.662;23.316;2022-09-12T08:24:02;94296.03;;;18.52;65.02
35778;BME280;21899;42.662;23.316;2022-09-12T08:26:29;94296.91;;;18.49;65.76
35778;BME280;21899;42.662;23.316;2022-09-12T08:28:54;94292.78;;;18.57;66.25
35778;BME280;21899;42.662;23.316;2022-09-12T08:31:22;94301.41;;;18.77;65.92
35778;BME280;21899;42.662;23.316;2022-09-12T08:33:49;94291.44;;;18.74;65.44
35778;BME280;21899;42.662;23.316;2022-09-12T08:36:20;94292.78;;;18.91;65.63
35778;BME280;21899;42.662;23.316;2022-09-12T08:38:48;94293.75;;;18.97;63.82
35778;BME280;21899;42.662;23.316;2022-09-12T08:49:32;94308.38;;;18.65;63.26
35778;BME280;21899;42.662;23.316;2022-09-12T08:52:04;94305.16;;;18.45;64.07
35778;BME280;21899;42.662;23.316;2022-09-12T08:54:31;94297.69;;;18.49;63.92
35778;BME280;21899;42.662;23.316;2022-09-12T08:57:01;94287.91;;;18.52;63.69
35778;BME280;21899;42.662;23.316;2022-09-12T08:59:36;94292.56;;;18.64;64.15
35778;BME280;21899;42.662;23.316;2022-09-12T09:02:19;94285.53;;;18.88;62.90
35778;BME280;21899;42.662;23.316;2022-09-12T09:05:03;94292.28;;;18.83;62.71
35778;BME280;21899;42.662;23.316;2022-09-12T09:10:28;94288.06;;;18.82;61.81
35778;BME280;21899;42.662;23.316;2022-09-12T09:18:30;94283.38;;;18.83;62.31
35778;BME280;21899;42.662;23.316;2022-09-12T09:21:08;94275.66;;;18.94;61.49
35778;BME280;21899;42.662;23.316;2022-09-12T09:23:45;94273.69;;;18.94;61.90
35778;BME280;21899;42.662;23.316;2022-09-12T09:26:20;94273.56;;;18.98;61.26
35778;BME280;21899;42.662;23.316;2022-09-12T09:29:03;94275.84;;;19.21;61.58
35778;BME280;21899;42.662;23.316;2022-09-12T09:31:35;94265.13;;;19.17;60.94
35778;BME280;21899;42.662;23.316;2022-09-12T09:34:09;94261.06;;;19.34;59.94
35778;BME280;21899;42.662;23.316;2022-09-12T09:39:05;94263.63;;;19.60;59.19
35778;BME280;21899;42.662;23.316;2022-09-12T09:44:28;94263.78;;;19.65;58.76
35778;BME280;21899;42.662;23.316;2022-09-12T09:46:57;94254.56;;;19.84;58.81
35778;BME280;21899;42.662;23.316;2022-09-12T09:49:24;94253.84;;;19.93;58.79
35778;BME280;21899;42.662;23.316;2022-09-12T09:51:51;94246.59;;;19.99;57.92
35778;BME280;21899;42.662;23.316;2022-09-12T09:54:25;94237.84;;;19.95;57.13
35778;BME280;21899;42.662;23.316;2022-09-12T09:56:53;94241.50;;;19.70;57.38
35778;BME280;21899;42.662;23.316;2022-09-12T10:01:57;94246.00;;;19.64;57.06
35778;BME280;21899;42.662;23.316;2022-09-12T10:04:29;94250.41;;;19.40;57.05
35778;BME280;21899;42.662;23.316;2022-09-12T10:06:58;94241.94;;;19.38;57.12
35778;BME280;21899;42.662;23.316;2022-09-12T10:09:28;94246.47;;;19.41;57.24
35778;BME280;21899;42.662;23.316;2022-09-12T10:11:58;94243.13;;;19.37;58.00
35778;BME280;21899;42.662;23.316;2022-09-12T10:16:59;94260.88;;;19.29;56.17
35778;BME280;21899;42.662;23.316;2022-09-12T10:19:38;94246.22;;;19.26;56.67
35778;BME280;21899;42.662;23.316;2022-09-12T10:22:15;94236.25;;;19.23;57.48
35778;BME280;21899;42.662;23.316;2022-09-12T10:24:46;94253.25;;;19.24;57.79
35778;BME280;21899;42.662;23.316;2022-09-12T10:27:15;94247.63;;;19.31;58.60
35778;BME280;21899;42.662;23.316;2022-09-12T10:29:48;94239.84;;;19.42;58.49
35778;BME280;21899;42.662;23.316;2022-09-12T10:34:51;94252.00;;;19.59;58.48
35778;BME280;21899;42.662;23.316;2022-09-12T10:37:38;94257.56;;;19.56;57.63
35778;BME280;21899;42.662;23.316;2022-09-12T10:40:26;94247.72;;;19.49;58.26
35778;BME280;21899;42.662;23.316;2022-09-12T10:45:19;94244.06;;;19.65;57.83
35778;BME280;21899;42.662;23.316;2022-09-12T10:47:45;94246.97;;;19.79;56.24
35778;BME280;21899;42.662;23.316;2022-09-12T10:50:35;94253.28;;;20.07;54.18
35778;BME280;21899;42.662;23.316;2022-09-12T10:53:22;94244.75;;;20.17;51.65
35778;BME280;21899;42.662;23.316;2022-09-12T10:58:39;94251.63;;;20.09;52.93
35778;BME280;21899;42.662;23.316;2022-09-12T11:12:50;94229.41;;;19.93;53.00
35778;BME280;21899;42.662;23.316;2022-09-12T11:21:08;94261.13;;;19.74;54.03
35778;BME280;21899;42.662;23.316;2022-09-12T11:29:58;94241.50;;;19.70;54.06
35778;BME280;21899;42.662;23.316;2022-09-12T11:32:47;94244.25;;;19.79;53.48
35778;BME280;21899;42.662;23.316;2022-09-12T11:35:29;94239.97;;;19.60;53.56
35778;BME280;21899;42.662;23.316;2022-09-12T11:47:04;94235.75;;;19.37;56.76
35778;BME280;21899;42.662;23.316;2022-09-12T11:49:38;94227.66;;;19.25;58.13
35778;BME280;21899;42.662;23.316;2022-09-12T11:52:28;94250.41;;;19.40;58.57
35778;BME280;21899;42.662;23.316;2022-09-12T11:55:21;94233.09;;;19.47;58.76
35778;BME280;21899;42.662;23.316;2022-09-12T11:57:53;94242.03;;;19.56;58.88
35778;BME280;21899;42.662;23.316;2022-09-12T12:00:41;94245.09;;;19.67;59.12
35778;BME280;21899;42.662;23.316;2022-09-12T12:03:13;94244.44;;;19.54;58.33
35778;BME280;21899;42.662;23.316;2022-09-12T12:06:32;94237.94;;;19.52;58.61
35778;BME280;21899;42.662;23.316;2022-09-12T12:09:03;94229.88;;;19.39;56.40
35778;BME280;21899;42.662;23.316;2022-09-12T12:11:32;94229.94;;;19.48;56.78
35778;BME280;21899;42.662;23.316;2022-09-12T12:14:01;94242.69;;;19.60;55.58
35778;BME280;21899;42.662;23.316;2022-09-12T12:16:30;94232.97;;;19.50;54.02
35778;BME280;21899;42.662;23.316;2022-09-12T12:19:01;94224.25;;;19.55;54.83
35778;BME280;21899;42.662;23.316;2022-09-12T12:34:28;94225.25;;;19.48;55.18
35778;BME280;21899;42.662;23.316;2022-09-12T12:36:54;94226.66;;;19.10;55.75
35778;BME280;21899;42.662;23.316;2022-09-12T12:41:57;94225.06;;;19.00;55.68
35778;BME280;21899;42.662;23.316;2022-09-12T12:50:42;94222.81;;;19.20;56.41
35778;BME280;21899;42.662;23.316;2022-09-12T12:55:49;94210.56;;;19.37;56.76
35778;BME280;21899;42.662;23.316;2022-09-12T13:00:44;94212.13;;;19.47;55.16
35778;BME280;21899;42.662;23.316;2022-09-12T13:03:29;94224.63;;;19.44;55.01
35778;BME280;21899;42.662;23.316;2022-09-12T13:06:00;94236.00;;;19.30;55.83
35778;BME280;21899;42.662;23.316;2022-09-12T13:08:35;94226.69;;;19.19;57.27
35778;BME280;21899;42.662;23.316;2022-09-12T13:11:27;94221.59;;;19.21;58.23
35778;BME280;21899;42.662;23.316;2022-09-12T13:13:59;94220.34;;;19.34;58.29
35778;BME280;21899;42.662;23.316;2022-09-12T13:16:58;94225.97;;;19.40;57.67
35778;BME280;21899;42.662;23.316;2022-09-12T13:19:32;94228.41;;;19.47;57.46
35778;BME280;21899;42.662;23.316;2022-09-12T13:22:08;94233.25;;;19.52;57.76
35778;BME280;21899;42.662;23.316;2022-09-12T13:24:48;94223.03;;;19.56;57.10
35778;BME280;21899;42.662;23.316;2022-09-12T13:27:22;94209.47;;;19.56;56.88
35778;BME280;21899;42.662;23.316;2022-09-12T13:29:48;94230.94;;;19.72;56.13
35778;BME280;21899;42.662;23.316;2022-09-12T13:32:15;94211.22;;;19.81;56.10
35778;BME280;21899;42.662;23.316;2022-09-12T13:38:01;94216.78;;;19.68;54.09
35778;BME280;21899;42.662;23.316;2022-09-12T13:43:40;94210.28;;;19.44;55.50
35778;BME280;21899;42.662;23.316;2022-09-12T13:46:08;94194.97;;;19.28;55.81
35778;BME280;21899;42.662;23.316;2022-09-12T13:48:38;94212.00;;;19.29;57.51
35778;BME280;21899;42.662;23.316;2022-09-12T13:51:04;94217.31;;;19.11;57.02
35778;BME280;21899;42.662;23.316;2022-09-12T13:53:43;94224.56;;;18.92;56.45
35778;BME280;21899;42.662;23.316;2022-09-12T13:56:16;94225.13;;;18.87;56.46
35778;BME280;21899;42.662;23.316;2022-09-12T13:58:53;94221.13;;;18.79;56.97
35778;BME280;21899;42.662;23.316;2022-09-12T14:01:21;94217.91;;;18.72;56.93
35778;BME280;21899;42.662;23.316;2022-09-12T14:03:54;94216.22;;;18.65;56.23
35778;BME280;21899;42.662;23.316;2022-09-12T14:06:50;94216.16;;;18.78;56.18
35778;BME280;21899;42.662;23.316;2022-09-12T14:09:34;94210.22;;;18.70;55.81
35778;BME280;21899;42.662;23.316;2022-09-12T14:12:03;94209.28;;;18.64;55.38
35778;BME280;21899;42.662;23.316;2022-09-12T14:14:34;94218.28;;;18.61;56.35
35778;BME280;21899;42.662;23.316;2022-09-12T14:17:13;94210.19;;;18.49;56.63
35778;BME280;21899;42.662;23.316;2022-09-12T14:19:39;94208.22;;;18.37;57.22
35778;BME280;21899;42.662;23.316;2022-09-12T14:22:08;94217.38;;;18.43;56.73
35778;BME280;21899;42.662;23.316;2022-09-12T14:24:36;94223.75;;;18.36;57.61
35778;BME280;21899;42.662;23.316;2022-09-12T14:27:03;94208.72;;;18.23;58.01
35778;BME280;21899;42.662;23.316;2022-09-12T14:29:29;94225.69;;;18.23;57.99
35778;BME280;21899;42.662;23.316;2022-09-12T14:32:00;94218.34;;;18.23;57.93
35778;BME280;21899;42.662;23.316;2022-09-12T14:34:27;94218.44;;;18.33;57.80
35778;BME280;21899;42.662;23.316;2022-09-12T14:36:53;94217.78;;;18.29;58.34
35778;BME280;21899;42.662;23.316;2022-09-12T14:39:36;94220.50;;;18.29;58.72
35778;BME280;21899;42.662;23.316;2022-09-12T14:44:29;94220.00;;;18.21;59.62
35778;BME280;21899;42.662;23.316;2022-09-12T14:47:09;94228.00;;;18.25;59.30
35778;BME280;21899;42.662;23.316;2022-09-12T14:49:36;94223.97;;;18.29;59.78
35778;BME280;21899;42.662;23.316;2022-09-12T14:52:08;94224.97;;;18.23;60.41
35778;BME280;21899;42.662;23.316;2022-09-12T14:55:40;94233.72;;;18.27;60.55
35778;BME280;21899;42.662;23.316;2022-09-12T14:57:41;94220.94;;;18.27;60.81
35778;BME280;21899;42.662;23.316;2022-09-12T15:00:16;94227.00;;;18.31;60.96
35778;BME280;21899;42.662;23.316;2022-09-12T15:02:45;94233.59;;;18.30;60.52
35778;BME280;21899;42.662;23.316;2022-09-12T15:12:49;94233.28;;;18.28;59.70
35778;BME280;21899;42.662;23.316;2022-09-12T15:15:18;94228.13;;;18.21;59.88
35778;BME280;21899;42.662;23.316;2022-09-12T15:17:44;94225.94;;;18.16;60.59
35778;BME280;21899;42.662;23.316;2022-09-12T15:20:10;94227.78;;;18.06;61.16
35778;BME280;21899;42.662;23.316;2022-09-12T15:22:37;94227.59;;;17.88;62.04
35778;BME280;21899;42.662;23.316;2022-09-12T15:25:04;94231.03;;;18.01;62.32
35778;BME280;21899;42.662;23.316;2022-09-12T15:27:29;94237.03;;;17.96;62.02
35778;BME280;21899;42.662;23.316;2022-09-12T15:29:55;94224.44;;;17.90;62.79
35778;BME280;21899;42.662;23.316;2022-09-12T15:32:28;94227.91;;;17.90;62.87
35778;BME280;21899;42.662;23.316;2022-09-12T15:34:54;94227.81;;;17.81;63.05
35778;BME280;21899;42.662;23.316;2022-09-12T15:37:21;94224.34;;;17.81;63.43
35778;BME280;21899;42.662;23.316;2022-09-12T15:39:47;94224.88;;;17.88;62.95
35778;BME280;21899;42.662;23.316;2022-09-12T15:42:14;94224.56;;;17.86;62.23
35778;BME280;21899;42.662;23.316;2022-09-12T15:44:39;94222.06;;;17.92;61.96
35778;BME280;21899;42.662;23.316;2022-09-12T15:47:05;94227.81;;;17.81;62.03
35778;BME280;21899;42.662;23.316;2022-09-12T15:49:31;94221.53;;;17.84;62.32
35778;BME280;21899;42.662;23.316;2022-09-12T15:51:57;94213.84;;;17.83;62.93
35778;BME280;21899;42.662;23.316;2022-09-12T15:54:23;94212.22;;;17.85;62.74
35778;BME280;21899;42.662;23.316;2022-09-12T15:56:48;94213.41;;;17.97;62.71
35778;BME280;21899;42.662;23.316;2022-09-12T15:59:14;94212.75;;;18.05;62.99
35778;BME280;21899;42.662;23.316;2022-09-12T16:01:40;94214.06;;;18.01;61.79
35778;BME280;21899;42.662;23.316;2022-09-12T16:04:26;94225.31;;;17.99;61.73
35778;BME280;21899;42.662;23.316;2022-09-12T16:06:54;94222.28;;;17.97;61.96
35778;BME280;21899;42.662;23.316;2022-09-12T16:09:20;94214.25;;;17.94;62.00
35778;BME280;21899;42.662;23.316;2022-09-12T16:11:46;94218.91;;;17.93;62.16
35778;BME280;21899;42.662;23.316;2022-09-12T16:14:13;94218.63;;;17.91;62.17
35778;BME280;21899;42.662;23.316;2022-09-12T16:16:40;94216.00;;;17.75;62.28
35778;BME280;21899;42.662;23.316;2022-09-12T16:19:06;94222.63;;;17.74;62.70
35778;BME280;21899;42.662;23.316;2022-09-12T16:21:31;94224.13;;;17.75;62.51
35778;BME280;21899;42.662;23.316;2022-09-12T16:23:57;94218.72;;;17.75;62.21
35778;BME280;21899;42.662;23.316;2022-09-12T16:26:22;94219.38;;;17.79;62.13
35778;BME280;21899;42.662;23.316;2022-09-12T16:28:54;94228.03;;;17.74;62.29
35778;BME280;21899;42.662;23.316;2022-09-12T16:31:20;94230.84;;;17.71;62.41
35778;BME280;21899;42.662;23.316;2022-09-12T16:33:45;94231.28;;;17.69;62.34
35778;BME280;21899;42.662;23.316;2022-09-12T16:36:14;94234.09;;;17.66;62.79
35778;BME280;21899;42.662;23.316;2022-09-12T16:38:51;94232.69;;;17.61;62.73
35778;BME280;21899;42.662;23.316;2022-09-12T16:41:19;94229.97;;;17.61;63.10
35778;BME280;21899;42.662;23.316;2022-09-12T16:43:45;94229.09;;;17.64;63.36
35778;BME280;21899;42.662;23.316;2022-09-12T16:46:14;94229.88;;;17.65;63.60
35778;BME280;21899;42.662;23.316;2022-09-12T16:48:47;94235.50;;;17.70;63.58
35778;BME280;21899;42.662;23.316;2022-09-12T16:51:17;94236.91;;;17.62;63.63
35778;BME280;21899;42.662;23.316;2022-09-12T16:53:44;94235.81;;;17.60;63.92
35778;BME280;21899;42.662;23.316;2022-09-12T16:56:10;94242.41;;;17.59;63.82
35778;BME280;21899;42.662;23.316;2022-09-12T16:58:37;94236.13;;;17.49;63.57
35778;BME280;21899;42.662;23.316;2022-09-12T17:01:11;94250.16;;;17.44;64.39
35778;BME280;21899;42.662;23.316;2022-09-12T17:03:37;94249.00;;;17.45;63.19
35778;BME280;21899;42.662;23.316;2022-09-12T17:06:14;94255.22;;;17.42;63.22
35778;BME280;21899;42.662;23.316;2022-09-12T17:08:42;94248.75;;;17.40;62.96
35778;BME280;21899;42.662;23.316;2022-09-12T17:11:10;94251.88;;;17.38;63.19
35778;BME280;21899;42.662;23.316;2022-09-12T17:13:36;94258.44;;;17.25;63.35
35778;BME280;21899;42.662;23.316;2022-09-12T17:16:10;94249.13;;;17.26;62.95
35778;BME280;21899;42.662;23.316;2022-09-12T17:18:39;94259.22;;;17.25;62.24
35778;BME280;21899;42.662;23.316;2022-09-12T17:21:05;94254.13;;;17.27;61.81
35778;BME280;21899;42.662;23.316;2022-09-12T17:23:31;94259.53;;;17.27;61.99
35778;BME280;21899;42.662;23.316;2022-09-12T17:25:57;94257.03;;;17.20;61.92
35778;BME280;21899;42.662;23.316;2022-09-12T17:28:22;94260.41;;;17.24;61.59
35778;BME280;21899;42.662;23.316;2022-09-12T17:30:54;94254.25;;;17.24;61.64
35778;BME280;21899;42.662;23.316;2022-09-12T17:33:19;94267.97;;;17.29;61.40
35778;BME280;21899;42.662;23.316;2022-09-12T17:35:45;94269.72;;;17.23;61.68
35778;BME280;21899;42.662;23.316;2022-09-12T17:38:10;94272.06;;;17.21;61.98
35778;BME280;21899;42.662;23.316;2022-09-12T17:40:36;94272.50;;;17.20;61.84
35778;BME280;21899;42.662;23.316;2022-09-12T17:43:01;94266.31;;;17.19;62.20
35778;BME280;21899;42.662;23.316;2022-09-12T17:45:28;94273.59;;;17.22;61.84
35778;BME280;21899;42.662;23.316;2022-09-12T17:47:53;94270.41;;;17.11;61.80
35778;BME280;21899;42.662;23.316;2022-09-12T17:50:19;94270.56;;;17.20;61.68
35778;BME280;21899;42.662;23.316;2022-09-12T17:52:45;94275.31;;;17.16;62.09
35778;BME280;21899;42.662;23.316;2022-09-12T17:55:11;94283.06;;;17.14;61.90
35778;BME280;21899;42.662;23.316;2022-09-12T17:57:37;94273.13;;;17.11;61.49
35778;BME280;21899;42.662;23.316;2022-09-12T18:00:03;94281.09;;;17.02;61.52
35778;BME280;21899;42.662;23.316;2022-09-12T18:02:29;94286.81;;;17.04;61.71
35778;BME280;21899;42.662;23.316;2022-09-12T18:04:54;94284.88;;;17.05;62.00
35778;BME280;21899;42.662;23.316;2022-09-12T18:07:20;94287.03;;;16.97;61.95
35778;BME280;21899;42.662;23.316;2022-09-12T18:09:46;94278.25;;;16.93;61.72
35778;BME280;21899;42.662;23.316;2022-09-12T18:12:13;94285.16;;;16.94;62.34
35778;BME280;21899;42.662;23.316;2022-09-12T18:14:39;94294.47;;;16.93;62.72
35778;BME280;21899;42.662;23.316;2022-09-12T18:17:04;94281.66;;;16.81;63.20
35778;BME280;21899;42.662;23.316;2022-09-12T18:19:33;94290.09;;;16.83;63.42
35778;BME280;21899;42.662;23.316;2022-09-12T18:21:58;94284.03;;;16.79;63.52
35778;BME280;21899;42.662;23.316;2022-09-12T18:24:24;94292.22;;;16.75;63.74
35778;BME280;21899;42.662;23.316;2022-09-12T18:26:50;94287.69;;;16.72;63.81
35778;BME280;21899;42.662;23.316;2022-09-12T18:29:16;94295.44;;;16.70;64.05
35778;BME280;21899;42.662;23.316;2022-09-12T18:31:42;94297.38;;;16.70;64.12
35778;BME280;21899;42.662;23.316;2022-09-12T18:34:10;94283.81;;;16.57;64.63
35778;BME280;21899;42.662;23.316;2022-09-12T18:36:42;94291.66;;;16.52;64.95
35778;BME280;21899;42.662;23.316;2022-09-12T18:39:08;94298.84;;;16.58;64.96
35778;BME280;21899;42.662;23.316;2022-09-12T18:41:34;94291.94;;;16.57;65.00
35778;BME280;21899;42.662;23.316;2022-09-12T18:44:00;94293.34;;;16.62;64.79
35778;BME280;21899;42.662;23.316;2022-09-12T18:46:28;94291.50;;;16.59;64.80
35778;BME280;21899;42.662;23.316;2022-09-12T18:48:54;94297.34;;;16.57;65.10
35778;BME280;21899;42.662;23.316;2022-09-12T18:51:23;94290.81;;;16.55;65.35
35778;BME280;21899;42.662;23.316;2022-09-12T18:53:55;94293.53;;;16.55;65.49
35778;BME280;21899;42.662;23.316;2022-09-12T18:56:22;94290.66;;;16.46;66.23
35778;BME280;21899;42.662;23.316;2022-09-12T18:58:50;94281.50;;;16.40;66.49
35778;BME280;21899;42.662;23.316;2022-09-12T19:01:22;94279.56;;;16.40;66.78
35778;BME280;21899;42.662;23.316;2022-09-12T19:03:48;94289.59;;;16.40;66.88
35778;BME280;21899;42.662;23.316;2022-09-12T19:08:47;94285.13;;;16.33;67.34
35778;BME280;21899;42.662;23.316;2022-09-12T19:11:13;94297.28;;;16.41;67.25
35778;BME280;21899;42.662;23.316;2022-09-12T19:13:41;94295.00;;;16.40;67.19
35778;BME280;21899;42.662;23.316;2022-09-12T19:16:08;94296.63;;;16.37;67.20
35778;BME280;21899;42.662;23.316;2022-09-12T19:18:35;94284.22;;;16.40;67.15
35778;BME280;21899;42.662;23.316;2022-09-12T19:21:05;94302.59;;;16.45;66.78
35778;BME280;21899;42.662;23.316;2022-09-12T19:23:32;94284.91;;;16.44;66.83
35778;BME280;21899;42.662;23.316;2022-09-12T19:25:59;94285.31;;;16.42;66.69
35778;BME280;21899;42.662;23.316;2022-09-12T19:28:26;94290.97;;;16.48;66.58
35778;BME280;21899;42.662;23.316;2022-09-12T19:30:52;94289.47;;;16.47;66.33
35778;BME280;21899;42.662;23.316;2022-09-12T19:33:18;94285.25;;;16.46;66.47
35778;BME280;21899;42.662;23.316;2022-09-12T19:35:44;94294.44;;;16.48;66.07
35778;BME280;21899;42.662;23.316;2022-09-12T19:38:09;94286.25;;;16.52;65.84
35778;BME280;21899;42.662;23.316;2022-09-12T19:40:35;94286.25;;;16.52;66.13
35778;BME280;21899;42.662;23.316;2022-09-12T19:43:02;94280.88;;;16.52;66.22
35778;BME280;21899;42.662;23.316;2022-09-12T19:45:27;94280.00;;;16.55;65.94
35778;BME280;21899;42.662;23.316;2022-09-12T19:47:52;94284.91;;;16.60;66.03
35778;BME280;21899;42.662;23.316;2022-09-12T19:50:18;94282.19;;;16.60;66.01
35778;BME280;21899;42.662;23.316;2022-09-12T19:52:44;94283.91;;;16.54;66.02
35778;BME280;21899;42.662;23.316;2022-09-12T19:55:09;94282.47;;;16.49;66.05
35778;BME280;21899;42.662;23.316;2022-09-12T19:57:34;94296.06;;;16.46;66.17
35778;BME280;21899;42.662;23.316;2022-09-12T20:00:01;94286.34;;;16.48;66.13
35778;BME280;21899;42.662;23.316;2022-09-12T20:02:26;94294.03;;;16.50;66.28
35778;BME280;21899;42.662;23.316;2022-09-12T20:04:53;94304.97;;;16.43;66.64
35778;BME280;21899;42.662;23.316;2022-09-12T20:07:18;94304.22;;;16.42;66.46
35778;BME280;21899;42.662;23.316;2022-09-12T20:09:44;94308.53;;;16.40;66.15
35778;BME280;21899;42.662;23.316;2022-09-12T20:12:09;94311.91;;;16.44;66.08
35778;BME280;21899;42.662;23.316;2022-09-12T20:14:35;94304.19;;;16.46;66.28
35778;BME280;21899;42.662;23.316;2022-09-12T20:17:00;94306.09;;;16.45;66.05
35778;BME280;21899;42.662;23.316;2022-09-12T20:19:26;94308.38;;;16.47;66.06
35778;BME280;21899;42.662;23.316;2022-09-12T20:21:51;94312.28;;;16.46;66.04
35778;BME280;21899;42.662;23.316;2022-09-12T20:24:17;94299.56;;;16.43;66.00
35778;BME280;21899;42.662;23.316;2022-09-12T20:26:42;94305.09;;;16.39;66.27
35778;BME280;21899;42.662;23.316;2022-09-12T20:29:08;94307.94;;;16.32;66.34
35778;BME280;21899;42.662;23.316;2022-09-12T20:31:35;94308.09;;;16.25;66.84
35778;BME280;21899;42.662;23.316;2022-09-12T20:34:02;94305.13;;;16.20;67.25
35778;BME280;21899;42.662;23.316;2022-09-12T20:36:27;94306.31;;;16.19;67.05
35778;BME280;21899;42.662;23.316;2022-09-12T20:38:56;94285.88;;;16.02;67.45
35778;BME280;21899;42.662;23.316;2022-09-12T20:41:22;94297.53;;;15.99;68.01
35778;BME280;21899;42.662;23.316;2022-09-12T20:43:52;94305.28;;;15.97;68.56
35778;BME280;21899;42.662;23.316;2022-09-12T20:46:18;94311.38;;;16.01;68.18
35778;BME280;21899;42.662;23.316;2022-09-12T20:48:44;94316.69;;;16.04;68.14
35778;BME280;21899;42.662;23.316;2022-09-12T20:51:11;94314.41;;;16.03;68.24
35778;BME280;21899;42.662;23.316;2022-09-12T20:53:36;94305.28;;;15.97;68.21
35778;BME280;21899;42.662;23.316;2022-09-12T20:56:02;94314.56;;;15.96;68.47
35778;BME280;21899;42.662;23.316;2022-09-12T20:58:29;94311.09;;;15.95;68.68
35778;BME280;21899;42.662;23.316;2022-09-12T21:00:55;94300.97;;;15.83;69.24
35778;BME280;21899;42.662;23.316;2022-09-12T21:03:20;94313.22;;;15.88;68.92
35778;BME280;21899;42.662;23.316;2022-09-12T21:05:46;94307.97;;;15.81;69.22
35778;BME280;21899;42.662;23.316;2022-09-12T21:08:12;94303.81;;;15.76;70.08
35778;BME280;21899;42.662;23.316;2022-09-12T21:10:42;94312.91;;;15.66;70.80
35778;BME280;21899;42.662;23.316;2022-09-12T21:13:11;94314.34;;;15.71;70.53
35778;BME280;21899;42.662;23.316;2022-09-12T21:15:38;94317.81;;;15.71;70.44
35778;BME280;21899;42.662;23.316;2022-09-12T21:18:04;94318.91;;;15.74;70.61
35778;BME280;21899;42.662;23.316;2022-09-12T21:20:30;94321.28;;;15.72;70.23
35778;BME280;21899;42.662;23.316;2022-09-12T21:22:55;94322.09;;;15.68;70.55
35778;BME280;21899;42.662;23.316;2022-09-12T21:25:21;94322.84;;;15.69;70.82
35778;BME280;21899;42.662;23.316;2022-09-12T21:27:46;94318.44;;;15.59;70.96
35778;BME280;21899;42.662;23.316;2022-09-12T21:30:12;94323.59;;;15.53;71.31
35778;BME280;21899;42.662;23.316;2022-09-12T21:32:38;94320.47;;;15.55;71.09
35778;BME280;21899;42.662;23.316;2022-09-12T21:35:04;94320.03;;;15.56;71.32
35778;BME280;21899;42.662;23.316;2022-09-12T21:37:30;94325.94;;;15.51;71.99
35778;BME280;21899;42.662;23.316;2022-09-12T21:39:56;94328.34;;;15.46;72.60
35778;BME280;21899;42.662;23.316;2022-09-12T21:42:23;94321.69;;;15.50;72.15
35778;BME280;21899;42.662;23.316;2022-09-12T21:44:48;94327.56;;;15.45;72.30
35778;BME280;21899;42.662;23.316;2022-09-12T21:47:14;94333.81;;;15.42;72.94
35778;BME280;21899;42.662;23.316;2022-09-12T21:49:39;94329.53;;;15.45;72.89
35778;BME280;21899;42.662;23.316;2022-09-12T21:52:05;94315.75;;;15.39;73.15
35778;BME280;21899;42.662;23.316;2022-09-12T21:54:31;94312.75;;;15.34;73.33
35778;BME280;21899;42.662;23.316;2022-09-12T21:56:59;94314.22;;;15.38;73.20
35778;BME280;21899;42.662;23.316;2022-09-12T21:59:24;94318.81;;;15.41;73.77
35778;BME280;21899;42.662;23.316;2022-09-12T22:01:50;94318.03;;;15.41;73.92
35778;BME280;21899;42.662;23.316;2022-09-12T22:04:15;94311.13;;;15.40;74.49